• Join FlightAware (Why Join?)
  • Login
  • US Flag 
02:37PM EDT


 

Airport Tracker/Info


-or-


 

Live Flight TrackerFlight Track Log ✈ KAP927 ✈ 28-Jun-2013 ✈ KBOS - KALB

Flight Track Log - Related Links

Times and Time Zones

All times are in EDT time to prevent confusion due to time zone crossing. See the KAP927 flight status page for this flight to view local times or setup timezone preferences in your user account.

Time Position Orientation Groundspeed Altitude Reporting Facility
EDT Latitude Longitude Course Direction KTS MPH feet Rate Location/Type
01:22PM 42.3667 -71.0167 270° West 237 273 400  Level KA90
01:23PM 42.3667 -71.0500 270° West 106 122 1,300 780 Climbing KA90
01:25PM 42.3500 -71.1000 246° West 107 123 2,200 720 Climbing KA90
01:26PM 42.3500 -71.1333 270° West 105 121 2,900 720 Climbing KA90
01:27PM 42.3500 -71.1833 270° West 105 121 3,700 660 Climbing KA90
01:27PM 42.3333 -71.2167 236° Southwest 103 119 4,200 540 Climbing KA90
01:28PM 42.3333 -71.2500 270° West 110 127 4,800 600 Climbing KA90
01:29PM 42.3333 -71.3000 270° West 115 132 5,400 600 Climbing KA90
01:30PM 42.3333 -71.3333 270° West 113 130 6,000 540 Climbing KA90
01:31PM 42.3167 -71.3833 246° West 111 128 6,500 600 Climbing KA90
01:32PM 42.3167 -71.4167 270° West 114 131 7,200 600 Climbing KA90
01:33PM 42.3167 -71.4667 270° West 114 131 7,700 480 Climbing KA90
01:34PM 42.3047 -71.4914 237° Southwest 116 133 8,000 120 Climbing Boston Center
01:35PM 42.2969 -71.5558 261° West 143 165 8,000  Level Boston Center
01:36PM 42.2869 -71.6122 257° West 152 175 8,000  Level Boston Center
01:37PM 42.2831 -71.6683 265° West 156 180 8,000  Level Boston Center
01:38PM 42.2753 -71.7331 261° West 154 177 8,000  Level Boston Center
01:39PM 42.2692 -71.7864 261° West 143 165 8,000  Level Boston Center
01:40PM 42.2656 -71.8397 265° West 141 162 8,000  Level Boston Center
01:42PM 42.2678 -71.8986 273° West 146 168 8,000  Level Boston Center
01:42PM 42.2700 -71.9436 274° West 143 165 8,000  Level Boston Center
01:43PM 42.2725 -72.0025 273° West 142 163 8,000  Level Boston Center
01:44PM 42.2747 -72.0586 273° West 147 169 8,100  Climbing Boston Center
01:45PM 42.2728 -72.1147 267° West 150 173 8,000 -60 Descending Boston Center
01:47PM 42.2750 -72.1681 273° West 144 166 8,000  Level Boston Center
01:48PM 42.2753 -72.2242 270° West 144 166 8,000  Level Boston Center
01:49PM 42.2753 -72.2772 270° West 143 165 8,000  Level Boston Center
01:50PM 42.2775 -72.3306 273° West 143 165 8,000  Level Boston Center
01:50PM 42.2836 -72.3783 280° West 144 166 8,000  Level Boston Center
01:51PM 42.3003 -72.4344 292° West 152 175 8,000  Level Boston Center
01:52PM 42.3192 -72.4850 297° West 151 174 8,000  Level Boston Center
01:53PM 42.3336 -72.5328 292° West 152 175 8,000  Level Boston Center
01:54PM 42.3525 -72.5889 295° West 154 177 8,000  Level Boston Center
01:56PM 42.3711 -72.6397 296° West 149 171 8,000  Level Boston Center
01:57PM 42.3875 -72.6903 294° West 149 171 8,000  Level Boston Center
01:58PM 42.4064 -72.7408 297° West 149 171 8,000  Level Boston Center
01:59PM 42.4228 -72.7972 292° West 149 171 8,000  Level Boston Center
02:00PM 42.4414 -72.8481 296° West 149 171 8,000  Level Boston Center
02:01PM 42.4578 -72.9017 293° West 145 167 8,000  Level Boston Center
02:02PM 42.4867 -72.9864 295° West 151 174 8,000  Level Boston Center
02:03PM 42.5031 -73.0372 294° West 147 169 8,000  Level Boston Center
02:04PM 42.5172 -73.0881 291° West 153 176 8,000  Level Boston Center
02:05PM 42.5400 -73.1389 301° West 151 174 8,000 -240 Level Boston Center
02:06PM 42.5564 -73.1925 293° West 164 189 7,600 -540 Descending Boston Center
02:07PM 42.5747 -73.2578 291° West 176 203 7,000 -600 Descending Boston Center
02:08PM 42.5950 -73.3200 294° West 181 208 6,500 -540 Descending Boston Center
02:09PM 42.6133 -73.3767 294° West 174 200 6,000 -540 Descending Boston Center
02:10PM 42.6317 -73.4361 293° West 176 203 5,500 -600 Descending Boston Center
02:11PM 42.6539 -73.4958 297° West 178 205 4,800 -660 Descending Boston Center
02:12PM 42.6742 -73.5583 294° West 181 208 4,200 -420 Descending Boston Center
02:13PM 42.6922 -73.6181 292° West 173 199 4,000 -120 Descending Boston Center
02:14PM 42.7189 -73.6667 307° West 159 183 4,000  Level Boston Center
02:15PM 42.7667 -73.6817 347° North 169 194 4,100 -180 Climbing Boston Center
02:16PM 42.8103 -73.6939 348° North 173 199 3,700 -540 Descending Boston Center
02:17PM 42.8517 -73.7258 331° Northwest 189 217 3,100 -780 Descending Boston Center
02:18PM 42.8383 -73.7878 254° West 179 206 2,200 -900 Descending Boston Center
02:19PM 42.7964 -73.8097 201° Southwest 152 175 1,300 -900 Descending Boston Center
02:21PM 42.7548 -73.8033 174° South  Level FlightAware Approximate
02:28PM 42.7491 -73.8020 299° West  Level Estimated
02:29PM 42.7491 -73.8020 299° West  Level Estimated
02:30PM 42.7491 -73.8020 299° West  Level Estimated
02:31PM 42.7491 -73.8020 299° West  Level Estimated